createdAt,value
2019-05-11T00:01:19.860Z,71.18
2019-05-11T00:03:48.506Z,71.02
2019-05-11T00:06:17.086Z,71.11
2019-05-11T00:08:45.701Z,71.17
2019-05-11T00:11:14.253Z,71.44
2019-05-11T00:13:42.884Z,71.52
2019-05-11T00:16:11.402Z,71.71
2019-05-11T00:18:40.033Z,71.82
2019-05-11T00:21:08.674Z,72.08
2019-05-11T00:23:37.267Z,71.92
2019-05-11T00:26:05.893Z,72.66
2019-05-11T00:28:34.494Z,72.06
2019-05-11T00:31:03.159Z,71.00
2019-05-11T00:33:31.715Z,70.93
2019-05-11T00:36:00.355Z,71.10
2019-05-11T00:38:28.992Z,71.34
2019-05-11T00:40:57.592Z,70.71
2019-05-11T00:43:26.138Z,70.64
2019-05-11T00:45:54.802Z,71.63
2019-05-11T00:48:23.296Z,72.06
2019-05-11T00:50:51.899Z,71.64
2019-05-11T00:53:20.539Z,72.46
2019-05-11T00:55:49.234Z,74.38
2019-05-11T00:58:17.803Z,74.22
2019-05-11T01:00:46.386Z,74.50
2019-05-11T01:03:14.937Z,75.59
2019-05-11T01:05:43.601Z,74.57
2019-05-11T01:08:12.185Z,73.51
2019-05-11T01:10:42.562Z,73.41
2019-05-11T01:13:11.189Z,72.35
2019-05-11T01:15:39.783Z,72.78
2019-05-11T01:18:08.368Z,71.48
2019-05-11T01:20:37.090Z,73.42
2019-05-11T01:23:05.672Z,74.67
2019-05-11T01:25:34.308Z,74.20
2019-05-11T01:28:02.839Z,74.82
2019-05-11T01:30:32.124Z,75.00
2019-05-11T01:33:00.590Z,73.93
2019-05-11T01:35:29.208Z,73.41
2019-05-11T01:37:57.811Z,78.87
2019-05-11T01:40:26.453Z,73.91
2019-05-11T01:42:55.119Z,72.89
2019-05-11T01:45:23.774Z,72.11
2019-05-11T01:47:52.375Z,72.14
2019-05-11T01:50:20.906Z,74.28
2019-05-11T01:52:49.525Z,75.47
2019-05-11T01:55:18.082Z,75.33
2019-05-11T01:57:46.749Z,75.88
2019-05-11T02:00:15.387Z,74.50
2019-05-11T02:02:43.949Z,74.84
2019-05-11T02:05:30.487Z,74.92
2019-05-11T02:08:00.829Z,74.33
2019-05-11T02:10:29.638Z,73.49
2019-05-11T02:12:58.232Z,76.18
2019-05-11T02:15:26.859Z,77.08
2019-05-11T02:17:55.490Z,75.39
2019-05-11T02:20:24.107Z,75.27
2019-05-11T02:22:52.742Z,75.08
2019-05-11T02:25:21.340Z,73.69
2019-05-11T02:27:49.985Z,74.49
2019-05-11T02:30:18.680Z,74.14
2019-05-11T02:32:47.256Z,74.14
2019-05-11T02:35:15.877Z,74.19
2019-05-11T02:37:44.385Z,73.41
2019-05-11T02:40:13.495Z,73.07
2019-05-11T02:42:42.117Z,73.91
2019-05-11T02:45:11.414Z,73.84
2019-05-11T02:47:40.260Z,74.27
2019-05-11T02:50:09.690Z,77.24
2019-05-11T02:52:39.471Z,76.00
2019-05-11T02:55:09.111Z,74.56
2019-05-11T02:57:37.732Z,74.18
2019-05-11T03:00:09.453Z,74.28
2019-05-11T03:02:37.925Z,73.66
2019-05-11T03:05:08.463Z,72.42
2019-05-11T03:07:36.943Z,73.65
2019-05-11T03:10:06.732Z,74.02
2019-05-11T03:12:35.382Z,72.72
2019-05-11T03:15:05.732Z,73.49
2019-05-11T03:17:34.355Z,74.30
2019-05-11T03:20:03.426Z,74.78
2019-05-11T03:22:31.974Z,75.30
2019-05-11T03:25:00.597Z,78.69
2019-05-11T03:27:29.171Z,75.49
2019-05-11T03:30:00.826Z,74.11
2019-05-11T03:32:28.126Z,74.10
2019-05-11T03:34:56.634Z,72.18
2019-05-11T03:37:25.189Z,72.95
2019-05-11T03:39:53.838Z,74.45
2019-05-11T03:42:22.344Z,73.34
2019-05-11T03:44:50.992Z,72.75
2019-05-11T03:47:19.644Z,74.36
2019-05-11T03:49:48.300Z,74.81
2019-05-11T03:52:17.119Z,74.54
2019-05-11T03:54:45.744Z,74.17
2019-05-11T03:57:14.413Z,74.17
2019-05-11T03:59:43.077Z,75.49
2019-05-11T04:02:11.642Z,74.38
2019-05-11T04:04:40.189Z,72.35
2019-05-11T04:07:08.746Z,72.06
2019-05-11T04:09:37.259Z,75.08
2019-05-11T04:12:05.905Z,75.08
2019-05-11T04:14:34.351Z,73.74
2019-05-11T04:17:02.964Z,74.10
2019-05-11T04:19:31.480Z,73.71
2019-05-11T04:22:00.122Z,73.71
2019-05-11T04:24:28.673Z,74.04
2019-05-11T04:26:57.278Z,73.48
2019-05-11T04:29:25.786Z,73.14
2019-05-11T04:31:54.303Z,74.78
2019-05-11T04:34:22.778Z,73.86
2019-05-11T04:36:51.356Z,76.14
2019-05-11T04:39:19.904Z,72.98
2019-05-11T04:41:48.600Z,72.84
2019-05-11T04:44:17.051Z,72.67
2019-05-11T04:46:45.696Z,72.42
2019-05-11T04:49:14.232Z,72.39
2019-05-11T04:51:42.859Z,72.12
2019-05-11T04:54:11.514Z,72.19
2019-05-11T04:56:40.026Z,73.76
2019-05-11T04:59:08.648Z,72.81
2019-05-11T05:01:37.164Z,72.65
2019-05-11T05:04:13.961Z,73.13
2019-05-11T05:06:38.836Z,73.89
2019-05-11T05:09:07.210Z,73.95
2019-05-11T05:11:36.795Z,76.43
2019-05-11T05:14:08.035Z,74.11
2019-05-11T05:16:36.364Z,72.79
2019-05-11T05:19:04.989Z,73.23
2019-05-11T05:21:33.531Z,71.88
2019-05-11T05:24:02.085Z,72.14
2019-05-11T05:26:30.715Z,71.45
2019-05-11T05:28:59.345Z,70.85
2019-05-11T05:31:27.858Z,71.10
2019-05-11T05:33:56.338Z,72.37
2019-05-11T05:36:24.956Z,72.13
2019-05-11T05:38:53.578Z,71.65
2019-05-11T05:41:22.189Z,72.17
2019-05-11T05:43:50.806Z,72.42
2019-05-11T05:46:19.410Z,72.35
2019-05-11T05:48:47.964Z,73.50
2019-05-11T05:51:16.440Z,72.30
2019-05-11T05:53:44.967Z,71.37
2019-05-11T05:56:13.523Z,71.11
2019-05-11T05:58:42.106Z,71.19
2019-05-11T06:01:10.695Z,70.85
2019-05-11T06:03:39.243Z,70.66
2019-05-11T06:06:07.852Z,70.88
2019-05-11T06:08:36.432Z,71.18
2019-05-11T06:11:05.407Z,71.50
2019-05-11T06:13:44.567Z,70.87
2019-05-11T06:16:04.219Z,70.91
2019-05-11T06:18:32.778Z,70.91
2019-05-11T06:21:01.261Z,71.17
2019-05-11T06:23:29.793Z,70.65
2019-05-11T06:25:58.428Z,70.01
2019-05-11T06:28:27.059Z,70.01
2019-05-11T06:30:55.586Z,70.33
2019-05-11T06:33:24.095Z,70.44
2019-05-11T06:35:52.755Z,70.25
2019-05-11T06:38:21.251Z,69.17
2019-05-11T06:40:49.830Z,68.97
2019-05-11T06:43:18.422Z,68.93
2019-05-11T06:45:47.024Z,68.87
2019-05-11T06:48:15.586Z,68.44
2019-05-11T06:50:44.114Z,68.69
2019-05-11T06:53:12.696Z,68.76
2019-05-11T06:55:41.232Z,68.44
2019-05-11T06:58:09.751Z,68.45
2019-05-11T07:00:38.291Z,69.29
2019-05-11T07:03:06.979Z,68.65
2019-05-11T07:05:36.218Z,68.16
2019-05-11T07:08:04.743Z,68.06
2019-05-11T07:10:33.362Z,68.87
2019-05-11T07:13:01.904Z,68.44
2019-05-11T07:15:30.512Z,68.45
2019-05-11T07:17:59.198Z,68.61
2019-05-11T07:20:27.736Z,71.02
2019-05-11T07:22:56.376Z,68.10
2019-05-11T07:25:24.907Z,67.43
2019-05-11T07:27:53.542Z,67.03
2019-05-11T07:30:22.159Z,66.86
2019-05-11T07:32:50.723Z,67.02
2019-05-11T07:35:19.372Z,66.73
2019-05-11T07:37:48.117Z,66.21
2019-05-11T07:40:18.729Z,66.40
2019-05-11T07:42:48.507Z,66.43
2019-05-11T07:45:18.148Z,66.18
2019-05-11T07:47:48.629Z,65.93
2019-05-11T07:50:18.149Z,65.74
2019-05-11T07:52:48.331Z,65.88
2019-05-11T07:55:18.977Z,66.73
2019-05-11T07:57:48.274Z,66.24
2019-05-11T08:00:18.606Z,65.68
2019-05-11T08:02:48.103Z,66.04
2019-05-11T08:05:18.014Z,65.45
2019-05-11T08:07:48.207Z,65.71
2019-05-11T08:10:18.617Z,65.36
2019-05-11T08:12:48.041Z,64.82
2019-05-11T08:15:18.349Z,64.55
2019-05-11T08:17:48.790Z,64.74
2019-05-11T08:20:18.712Z,64.92
2019-05-11T08:22:48.231Z,65.49
2019-05-11T08:25:18.244Z,65.19
2019-05-11T08:27:48.509Z,65.00
2019-05-11T08:30:18.791Z,63.90
2019-05-11T08:32:49.274Z,63.76
2019-05-11T08:35:18.197Z,63.20
2019-05-11T08:37:47.872Z,63.63
2019-05-11T08:40:18.440Z,63.59
2019-05-11T08:42:48.219Z,62.89
2019-05-11T08:45:24.237Z,63.20
2019-05-11T08:47:48.485Z,62.76
2019-05-11T08:50:18.762Z,62.24
2019-05-11T08:52:48.031Z,62.04
2019-05-11T08:55:18.972Z,61.77
2019-05-11T08:57:47.913Z,61.43
2019-05-11T09:00:18.306Z,61.39
2019-05-11T09:02:50.512Z,59.17
2019-05-11T09:05:18.670Z,59.79
2019-05-11T09:07:48.466Z,59.84
2019-05-11T09:10:18.641Z,59.38
2019-05-11T09:12:48.796Z,59.44
2019-05-11T09:15:32.773Z,58.98
2019-05-11T09:17:48.771Z,58.29
2019-05-11T09:20:18.066Z,58.70
2019-05-11T09:22:48.537Z,59.04
2019-05-11T09:25:18.231Z,58.65
2019-05-11T09:27:48.220Z,58.37
2019-05-11T09:30:18.497Z,56.57
2019-05-11T09:32:47.877Z,56.93
2019-05-11T09:35:18.651Z,56.43
2019-05-11T09:37:48.431Z,54.85
2019-05-11T09:40:18.213Z,55.42
2019-05-11T09:42:47.857Z,55.47
2019-05-11T09:45:18.688Z,55.10
2019-05-11T09:47:47.735Z,55.31
2019-05-11T09:50:17.850Z,56.52
2019-05-11T09:52:48.900Z,57.17
2019-05-11T09:55:18.997Z,56.47
2019-05-11T09:57:48.660Z,55.95
2019-05-11T10:00:18.054Z,56.19
2019-05-11T10:02:48.735Z,55.86
2019-05-11T10:05:18.861Z,55.75
2019-05-11T10:07:48.474Z,56.48
2019-05-11T10:10:18.598Z,55.68
2019-05-11T10:12:48.526Z,54.34
2019-05-11T10:15:18.975Z,55.71
2019-05-11T10:17:48.299Z,55.60
2019-05-11T10:20:18.144Z,55.91
2019-05-11T10:22:48.621Z,55.28
2019-05-11T10:25:18.176Z,55.37
2019-05-11T10:27:48.896Z,54.30
2019-05-11T10:30:18.699Z,53.42
2019-05-11T10:32:48.414Z,53.31
2019-05-11T10:35:18.342Z,52.88
2019-05-11T10:37:47.807Z,52.91
2019-05-11T10:40:18.933Z,51.19
2019-05-11T10:42:48.358Z,50.90
2019-05-11T10:45:18.017Z,50.15
2019-05-11T10:47:48.984Z,50.11
2019-05-11T10:50:18.717Z,51.23
2019-05-11T10:52:48.362Z,49.52
2019-05-11T10:55:19.423Z,50.19
2019-05-11T10:57:48.714Z,49.67
2019-05-11T11:00:18.326Z,49.56
2019-05-11T11:02:47.703Z,49.36
2019-05-11T11:05:18.751Z,49.66
2019-05-11T11:07:48.418Z,50.32
2019-05-11T11:10:18.288Z,50.49
2019-05-11T11:12:49.014Z,49.54
2019-05-11T11:15:18.464Z,49.50
2019-05-11T11:17:48.581Z,49.18
2019-05-11T11:20:18.668Z,48.25
2019-05-11T11:22:48.262Z,47.95
2019-05-11T11:25:18.000Z,47.91
2019-05-11T11:27:48.622Z,47.97
2019-05-11T11:30:18.198Z,48.90
2019-05-11T11:32:48.243Z,48.79
2019-05-11T11:35:18.750Z,49.61
2019-05-11T11:37:47.951Z,49.44
2019-05-11T11:40:17.875Z,48.62
2019-05-11T11:42:47.791Z,47.95
2019-05-11T11:45:18.261Z,47.34
2019-05-11T11:47:49.361Z,47.40
2019-05-11T11:50:17.954Z,47.42
2019-05-11T11:52:47.688Z,47.76
2019-05-11T11:55:18.594Z,47.75
2019-05-11T11:57:48.980Z,46.59
2019-05-11T12:00:18.313Z,48.12
2019-05-11T12:02:48.756Z,48.73
2019-05-11T12:05:17.693Z,49.50
2019-05-11T12:07:46.261Z,50.07
2019-05-11T12:10:15.060Z,49.70
2019-05-11T12:12:43.605Z,49.88
2019-05-11T12:15:12.295Z,49.58
2019-05-11T12:17:40.844Z,48.63
2019-05-11T12:20:09.459Z,48.67
2019-05-11T12:22:38.641Z,47.43
2019-05-11T12:25:08.066Z,47.94
2019-05-11T12:27:38.424Z,47.94
2019-05-11T12:30:09.146Z,47.74
2019-05-11T12:32:45.281Z,47.57
2019-05-11T12:35:14.559Z,45.96
2019-05-11T12:37:43.176Z,46.83
2019-05-11T12:40:12.507Z,46.76
2019-05-11T12:42:41.108Z,47.52
2019-05-11T12:45:10.127Z,47.63
2019-05-11T12:47:38.816Z,47.31
2019-05-11T12:50:08.597Z,46.73
2019-05-11T12:52:38.260Z,46.25
2019-05-11T12:55:08.780Z,46.48
2019-05-11T12:57:38.640Z,46.40
2019-05-11T13:00:09.251Z,46.62
2019-05-11T13:02:38.797Z,45.46
2019-05-11T13:05:08.668Z,45.73
2019-05-11T13:07:39.285Z,45.52
2019-05-11T13:10:08.495Z,45.45
2019-05-11T13:12:38.595Z,44.53
2019-05-11T13:15:08.420Z,45.90
2019-05-11T13:17:40.126Z,45.38
2019-05-11T13:20:08.807Z,45.45
2019-05-11T13:22:38.611Z,43.89
2019-05-11T13:25:08.555Z,45.38
2019-05-11T13:27:38.668Z,44.78
2019-05-11T13:30:10.766Z,45.32
2019-05-11T13:32:39.302Z,44.25
2019-05-11T13:35:09.101Z,45.74
2019-05-11T13:37:38.787Z,46.30
2019-05-11T13:40:08.122Z,45.06
2019-05-11T13:42:38.560Z,44.72
2019-05-11T13:45:08.650Z,44.80
2019-05-11T13:47:49.328Z,44.95
2019-05-11T13:50:07.974Z,45.25
2019-05-11T13:52:38.420Z,45.70
2019-05-11T13:55:08.127Z,46.17
2019-05-11T13:57:38.049Z,47.01
2019-05-11T14:00:08.593Z,46.83
2019-05-11T14:02:37.924Z,46.79
2019-05-11T14:05:08.763Z,46.51
2019-05-11T14:07:38.136Z,46.40
2019-05-11T14:10:08.442Z,46.33
2019-05-11T14:12:38.568Z,46.15
2019-05-11T14:15:08.936Z,45.63
2019-05-11T14:17:38.080Z,45.92
2019-05-11T14:20:09.339Z,45.84
2019-05-11T14:22:38.847Z,46.01
2019-05-11T14:25:08.170Z,46.33
2019-05-11T14:27:39.119Z,46.32
2019-05-11T14:30:08.664Z,47.31
2019-05-11T14:32:38.833Z,48.69
2019-05-11T14:35:11.968Z,49.06
2019-05-11T14:37:38.342Z,48.57
2019-05-11T14:40:08.805Z,47.67
2019-05-11T14:42:38.170Z,47.94
2019-05-11T14:45:08.549Z,47.25
2019-05-11T14:47:38.718Z,46.98
2019-05-11T14:50:08.626Z,46.03
2019-05-11T14:52:38.782Z,44.60
2019-05-11T14:55:08.263Z,44.00
2019-05-11T14:57:39.410Z,44.07
2019-05-11T15:00:08.454Z,43.11
2019-05-11T15:02:48.536Z,42.41
2019-05-11T15:05:18.425Z,43.29
2019-05-11T15:07:47.948Z,43.81
2019-05-11T15:10:18.982Z,40.91
2019-05-11T15:12:48.896Z,41.92
2019-05-11T15:15:18.877Z,41.81
2019-05-11T15:17:49.147Z,41.97
2019-05-11T15:20:18.470Z,40.51
2019-05-11T15:22:48.850Z,39.72
2019-05-11T15:25:19.265Z,39.52
2019-05-11T15:27:48.912Z,40.69
2019-05-11T15:30:18.468Z,42.03
2019-05-11T15:32:48.116Z,41.38
2019-05-11T15:35:18.637Z,40.95
2019-05-11T15:37:48.154Z,40.95
2019-05-11T15:40:21.423Z,41.97
2019-05-11T15:42:49.995Z,41.52
2019-05-11T15:45:19.205Z,41.52
2019-05-11T15:47:48.738Z,41.07
2019-05-11T15:50:19.189Z,41.08
2019-05-11T15:52:48.823Z,41.74
2019-05-11T15:55:18.931Z,41.79
2019-05-11T15:57:48.324Z,42.41
2019-05-11T16:00:18.033Z,42.84
2019-05-11T16:02:49.057Z,41.93
2019-05-11T16:05:18.244Z,41.93
2019-05-11T16:07:49.217Z,42.06
2019-05-11T16:10:18.779Z,41.95
2019-05-11T16:12:48.565Z,41.00
2019-05-11T16:15:19.161Z,40.68
2019-05-11T16:17:48.788Z,40.70
2019-05-11T16:20:18.855Z,40.65
2019-05-11T16:22:48.062Z,40.08
2019-05-11T16:25:19.613Z,40.42
2019-05-11T16:27:47.547Z,40.82
2019-05-11T16:30:18.403Z,40.15
2019-05-11T16:32:48.087Z,40.46
2019-05-11T16:35:17.958Z,40.32
2019-05-11T16:37:48.608Z,40.58
2019-05-11T16:40:20.137Z,39.72
2019-05-11T16:42:47.905Z,40.07
2019-05-11T16:45:18.910Z,40.00
2019-05-11T16:47:48.213Z,39.63
2019-05-11T16:50:18.059Z,39.15
2019-05-11T16:52:48.176Z,38.47
2019-05-11T16:55:18.465Z,38.84
2019-05-11T16:57:48.437Z,39.00
2019-05-11T17:00:17.843Z,37.55
2019-05-11T17:02:48.703Z,38.98
2019-05-11T17:05:25.711Z,39.25
2019-05-11T17:07:48.319Z,38.26
2019-05-11T17:10:17.966Z,39.59
2019-05-11T17:12:48.276Z,39.60
2019-05-11T17:15:18.460Z,38.52
2019-05-11T17:17:48.663Z,39.35
2019-05-11T17:20:19.248Z,39.57
2019-05-11T17:22:48.462Z,40.06
2019-05-11T17:25:19.279Z,38.72
2019-05-11T17:27:48.669Z,38.23
2019-05-11T17:30:19.562Z,38.86
2019-05-11T17:32:49.231Z,39.63
2019-05-11T17:35:18.454Z,39.43
2019-05-11T17:37:48.477Z,39.31
2019-05-11T17:40:20.505Z,38.03
2019-05-11T17:42:48.233Z,39.47
2019-05-11T17:45:18.842Z,39.31
2019-05-11T17:47:47.436Z,39.67
2019-05-11T17:50:16.134Z,39.75
2019-05-11T17:52:44.781Z,39.90
2019-05-11T17:55:13.366Z,40.83
2019-05-11T17:57:42.502Z,40.88
2019-05-11T18:00:11.417Z,40.73
2019-05-11T18:02:39.939Z,40.99
2019-05-11T18:05:09.083Z,40.27
2019-05-11T18:07:38.632Z,41.50
2019-05-11T18:10:08.584Z,40.83
2019-05-11T18:12:39.154Z,40.99
2019-05-11T18:15:08.444Z,41.38
2019-05-11T18:17:37.178Z,41.11
2019-05-11T18:20:16.939Z,41.30
2019-05-11T18:22:39.588Z,41.68
2019-05-11T18:25:08.968Z,41.55
2019-05-11T18:27:38.666Z,42.05
2019-05-11T18:30:08.958Z,42.10
2019-05-11T18:32:39.693Z,41.82
2019-05-11T18:35:08.582Z,42.00
2019-05-11T18:37:38.982Z,42.00
2019-05-11T18:40:08.024Z,42.13
2019-05-11T18:42:38.344Z,42.78
2019-05-11T18:45:08.350Z,43.34
2019-05-11T18:47:38.206Z,43.10
2019-05-11T18:50:07.467Z,42.52
2019-05-11T18:52:36.049Z,43.39
2019-05-11T18:55:08.359Z,44.00
2019-05-11T18:57:38.387Z,43.66
2019-05-11T19:00:09.226Z,43.83
2019-05-11T19:02:38.701Z,44.29
2019-05-11T19:05:07.611Z,43.93
2019-05-11T19:07:38.570Z,44.27
2019-05-11T19:10:08.654Z,44.84
2019-05-11T19:12:37.760Z,44.84
2019-05-11T19:15:08.261Z,44.61
2019-05-11T19:17:38.495Z,44.03
2019-05-11T19:20:08.511Z,45.22
2019-05-11T19:22:37.720Z,45.53
2019-05-11T19:25:08.960Z,45.47
2019-05-11T19:27:37.847Z,46.04
2019-05-11T19:30:08.213Z,46.47
2019-05-11T19:32:38.353Z,45.97
2019-05-11T19:35:08.849Z,46.31
2019-05-11T19:37:38.943Z,46.24
2019-05-11T19:40:09.399Z,46.72
2019-05-11T19:42:59.025Z,46.98
2019-05-11T19:45:29.328Z,46.98
2019-05-11T19:47:58.372Z,49.06
2019-05-11T19:50:26.911Z,47.64
2019-05-11T19:52:57.810Z,47.25
2019-05-11T19:55:28.354Z,47.59
2019-05-11T19:57:55.963Z,47.94
2019-05-11T20:00:24.585Z,47.06
2019-05-11T20:02:53.153Z,47.95
2019-05-11T20:05:21.704Z,48.32
2019-05-11T20:07:50.285Z,47.94
2019-05-11T20:10:19.252Z,48.07
2019-05-11T20:12:48.510Z,48.30
2019-05-11T20:15:18.727Z,48.61
2019-05-11T20:17:48.529Z,48.65
2019-05-11T20:20:18.347Z,48.16
2019-05-11T20:22:48.163Z,48.79
2019-05-11T20:25:18.716Z,48.78
2019-05-11T20:27:48.562Z,47.87
2019-05-11T20:30:18.280Z,48.87
2019-05-11T20:32:48.523Z,48.29
2019-05-11T20:35:17.712Z,49.28
2019-05-11T20:37:46.306Z,48.76
2019-05-11T20:40:15.036Z,48.52
2019-05-11T20:42:43.624Z,48.68
2019-05-11T20:45:12.585Z,48.77
2019-05-11T20:47:41.079Z,48.85
2019-05-11T20:50:10.107Z,48.80
2019-05-11T20:52:39.780Z,49.36
2019-05-11T20:55:09.106Z,49.80
2019-05-11T20:57:39.180Z,49.61
2019-05-11T21:00:09.075Z,49.53
2019-05-11T21:02:38.237Z,49.46
2019-05-11T21:05:09.900Z,49.75
2019-05-11T21:07:39.137Z,50.01
2019-05-11T21:10:09.698Z,49.62
2019-05-11T21:12:38.956Z,50.07
2019-05-11T21:15:11.076Z,50.87
2019-05-11T21:17:39.792Z,50.87
2019-05-11T21:20:09.550Z,50.12
2019-05-11T21:22:40.705Z,50.19
2019-05-11T21:25:09.279Z,50.62
2019-05-11T21:27:38.407Z,50.88
2019-05-11T21:30:09.548Z,50.83
2019-05-11T21:32:39.245Z,50.74
2019-05-11T21:35:08.867Z,50.93
2019-05-11T21:37:38.871Z,51.63
2019-05-11T21:40:09.112Z,51.26
2019-05-11T21:42:39.114Z,51.28
2019-05-11T21:45:09.436Z,51.59
2019-05-11T21:47:39.936Z,51.69
2019-05-11T21:50:10.130Z,52.02
2019-05-11T21:52:38.993Z,52.08
2019-05-11T21:55:09.426Z,52.87
2019-05-11T21:57:38.392Z,52.85
2019-05-11T22:00:09.773Z,52.51
2019-05-11T22:02:38.891Z,52.30
2019-05-11T22:05:08.960Z,52.57
2019-05-11T22:07:38.826Z,52.32
2019-05-11T22:10:09.217Z,52.53
2019-05-11T22:12:38.896Z,53.06
2019-05-11T22:15:10.964Z,53.11
2019-05-11T22:17:39.913Z,53.48
2019-05-11T22:20:09.119Z,53.65
2019-05-11T22:22:39.119Z,54.33
2019-05-11T22:25:08.802Z,54.73
2019-05-11T22:27:38.741Z,54.45
2019-05-11T22:30:08.834Z,57.17
2019-05-11T22:32:38.429Z,56.72
2019-05-11T22:35:08.244Z,55.41
2019-05-11T22:37:38.644Z,54.64
2019-05-11T22:40:09.122Z,55.34
2019-05-11T22:42:38.092Z,55.25
2019-05-11T22:45:09.905Z,55.47
2019-05-11T22:47:39.544Z,55.19
2019-05-11T22:50:09.238Z,55.30
2019-05-11T22:52:40.424Z,55.30
2019-05-11T22:55:11.694Z,55.58
2019-05-11T22:57:38.936Z,55.86
2019-05-11T23:00:09.585Z,55.99
2019-05-11T23:02:38.369Z,55.77
2019-05-11T23:05:08.593Z,56.66
2019-05-11T23:07:41.199Z,57.57
2019-05-11T23:10:09.680Z,56.45
2019-05-11T23:12:38.735Z,56.39
2019-05-11T23:15:12.372Z,56.46
2019-05-11T23:17:41.154Z,56.36
2019-05-11T23:20:11.672Z,56.31
2019-05-11T23:22:58.106Z,56.54
2019-05-11T23:25:19.655Z,56.92
2019-05-11T23:27:48.812Z,56.49
2019-05-11T23:30:19.662Z,56.91
2019-05-11T23:32:49.246Z,56.84
2019-05-11T23:35:18.724Z,56.76
2019-05-11T23:37:49.591Z,56.37
2019-05-11T23:40:18.531Z,57.91
2019-05-11T23:42:49.101Z,57.57
2019-05-11T23:45:18.929Z,57.18
2019-05-11T23:47:48.718Z,57.32
2019-05-11T23:50:19.429Z,56.60
2019-05-11T23:52:58.173Z,56.65
2019-05-11T23:55:19.530Z,57.11
2019-05-11T23:57:49.132Z,57.57
